sensor_id;sensor_type;location;lat;lon;timestamp;temperature;humidity
17954;DHT22;9102;53.548;9.926;2024-01-25T00:00:50;7.20;99.90
17954;DHT22;9102;53.548;9.926;2024-01-25T00:03:17;7.10;99.90
17954;DHT22;9102;53.548;9.926;2024-01-25T00:05:45;7.10;99.90
17954;DHT22;9102;53.548;9.926;2024-01-25T00:08:12;7.10;99.90
17954;DHT22;9102;53.548;9.926;2024-01-25T00:10:39;7.20;99.90
17954;DHT22;9102;53.548;9.926;2024-01-25T00:13:05;7.10;99.90
17954;DHT22;9102;53.548;9.926;2024-01-25T00:15:32;7.10;99.90
17954;DHT22;9102;53.548;9.926;2024-01-25T00:17:59;7.10;99.90
17954;DHT22;9102;53.548;9.926;2024-01-25T00:20:26;7.20;99.90
17954;DHT22;9102;53.548;9.926;2024-01-25T00:22:54;6.90;99.90
17954;DHT22;9102;53.548;9.926;2024-01-25T00:25:21;7.00;99.90
17954;DHT22;9102;53.548;9.926;2024-01-25T00:27:47;7.00;99.90
17954;DHT22;9102;53.548;9.926;2024-01-25T00:30:14;7.10;99.90
17954;DHT22;9102;53.548;9.926;2024-01-25T00:32:41;7.00;99.90
17954;DHT22;9102;53.548;9.926;2024-01-25T00:35:09;7.00;99.90
17954;DHT22;9102;53.548;9.926;2024-01-25T00:37:39;7.00;99.90
17954;DHT22;9102;53.548;9.926;2024-01-25T00:40:08;7.00;99.90
17954;DHT22;9102;53.548;9.926;2024-01-25T00:42:40;7.00;99.90
17954;DHT22;9102;53.548;9.926;2024-01-25T00:45:08;7.10;99.90
17954;DHT22;9102;53.548;9.926;2024-01-25T00:47:36;7.00;99.90
17954;DHT22;9102;53.548;9.926;2024-01-25T00:50:04;7.00;99.90
17954;DHT22;9102;53.548;9.926;2024-01-25T00:52:31;7.10;99.90
17954;DHT22;9102;53.548;9.926;2024-01-25T00:54:59;7.00;99.90
17954;DHT22;9102;53.548;9.926;2024-01-25T00:57:27;7.10;99.90
17954;DHT22;9102;53.548;9.926;2024-01-25T00:59:54;7.20;99.90
17954;DHT22;9102;53.548;9.926;2024-01-25T01:02:22;7.20;99.90
17954;DHT22;9102;53.548;9.926;2024-01-25T01:04:49;7.20;99.90
17954;DHT22;9102;53.548;9.926;2024-01-25T01:07:17;7.30;99.90
17954;DHT22;9102;53.548;9.926;2024-01-25T01:09:43;7.30;99.90
17954;DHT22;9102;53.548;9.926;2024-01-25T01:12:10;7.30;99.90
17954;DHT22;9102;53.548;9.926;2024-01-25T01:14:38;7.30;99.90
17954;DHT22;9102;53.548;9.926;2024-01-25T01:17:05;7.30;99.90
17954;DHT22;9102;53.548;9.926;2024-01-25T01:19:32;7.30;99.90
17954;DHT22;9102;53.548;9.926;2024-01-25T01:21:59;7.30;99.90
17954;DHT22;9102;53.548;9.926;2024-01-25T01:24:26;7.30;99.90
17954;DHT22;9102;53.548;9.926;2024-01-25T01:26:55;7.20;99.90
17954;DHT22;9102;53.548;9.926;2024-01-25T01:29:21;7.20;99.90
17954;DHT22;9102;53.548;9.926;2024-01-25T01:31:50;7.20;99.90
17954;DHT22;9102;53.548;9.926;2024-01-25T01:34:17;7.20;99.90
17954;DHT22;9102;53.548;9.926;2024-01-25T01:36:44;7.10;99.90
17954;DHT22;9102;53.548;9.926;2024-01-25T01:39:11;7.10;99.90
17954;DHT22;9102;53.548;9.926;2024-01-25T01:41:37;7.10;99.90
17954;DHT22;9102;53.548;9.926;2024-01-25T01:44:04;7.10;99.90
17954;DHT22;9102;53.548;9.926;2024-01-25T01:46:33;7.00;99.90
17954;DHT22;9102;53.548;9.926;2024-01-25T01:49:03;7.10;99.90
17954;DHT22;9102;53.548;9.926;2024-01-25T01:51:31;7.10;99.90
17954;DHT22;9102;53.548;9.926;2024-01-25T01:54:00;7.10;99.90
17954;DHT22;9102;53.548;9.926;2024-01-25T01:56:28;7.00;99.90
17954;DHT22;9102;53.548;9.926;2024-01-25T01:58:57;7.00;99.90
17954;DHT22;9102;53.548;9.926;2024-01-25T02:01:24;7.00;99.90
17954;DHT22;9102;53.548;9.926;2024-01-25T02:03:51;7.10;99.90
17954;DHT22;9102;53.548;9.926;2024-01-25T02:06:20;7.10;99.90
17954;DHT22;9102;53.548;9.926;2024-01-25T02:08:48;7.10;99.90
17954;DHT22;9102;53.548;9.926;2024-01-25T02:11:16;7.00;99.90
17954;DHT22;9102;53.548;9.926;2024-01-25T02:13:43;7.10;99.90
17954;DHT22;9102;53.548;9.926;2024-01-25T02:16:10;7.10;99.90
17954;DHT22;9102;53.548;9.926;2024-01-25T02:18:37;7.10;99.90
17954;DHT22;9102;53.548;9.926;2024-01-25T02:21:04;7.10;99.90
17954;DHT22;9102;53.548;9.926;2024-01-25T02:23:32;7.10;99.90
17954;DHT22;9102;53.548;9.926;2024-01-25T02:25:59;7.10;99.90
17954;DHT22;9102;53.548;9.926;2024-01-25T02:28:26;7.10;99.90
17954;DHT22;9102;53.548;9.926;2024-01-25T02:30:53;7.10;99.90
17954;DHT22;9102;53.548;9.926;2024-01-25T02:33:20;7.10;99.90
17954;DHT22;9102;53.548;9.926;2024-01-25T02:35:47;7.10;99.90
17954;DHT22;9102;53.548;9.926;2024-01-25T02:38:13;7.20;99.90
17954;DHT22;9102;53.548;9.926;2024-01-25T02:40:42;7.20;99.90
17954;DHT22;9102;53.548;9.926;2024-01-25T02:43:08;7.20;99.90
17954;DHT22;9102;53.548;9.926;2024-01-25T02:45:35;7.20;99.90
17954;DHT22;9102;53.548;9.926;2024-01-25T02:48:02;7.20;99.90
17954;DHT22;9102;53.548;9.926;2024-01-25T02:50:29;7.20;99.90
17954;DHT22;9102;53.548;9.926;2024-01-25T02:52:56;7.30;99.90
17954;DHT22;9102;53.548;9.926;2024-01-25T02:55:23;7.30;99.90
17954;DHT22;9102;53.548;9.926;2024-01-25T02:57:51;7.30;99.90
17954;DHT22;9102;53.548;9.926;2024-01-25T03:00:18;7.30;99.90
17954;DHT22;9102;53.548;9.926;2024-01-25T03:02:45;7.30;99.90
17954;DHT22;9102;53.548;9.926;2024-01-25T03:05:12;7.20;99.90
17954;DHT22;9102;53.548;9.926;2024-01-25T03:07:39;7.30;99.90
17954;DHT22;9102;53.548;9.926;2024-01-25T03:10:06;7.30;99.90
17954;DHT22;9102;53.548;9.926;2024-01-25T03:12:33;7.30;99.90
17954;DHT22;9102;53.548;9.926;2024-01-25T03:15:02;7.20;99.90
17954;DHT22;9102;53.548;9.926;2024-01-25T03:17:28;7.30;99.90
17954;DHT22;9102;53.548;9.926;2024-01-25T03:19:55;7.30;99.90
17954;DHT22;9102;53.548;9.926;2024-01-25T03:22:22;7.30;99.90
17954;DHT22;9102;53.548;9.926;2024-01-25T03:24:49;7.30;99.90
17954;DHT22;9102;53.548;9.926;2024-01-25T03:27:15;7.20;99.90
17954;DHT22;9102;53.548;9.926;2024-01-25T03:29:43;7.20;99.90
17954;DHT22;9102;53.548;9.926;2024-01-25T03:32:11;7.20;99.90
17954;DHT22;9102;53.548;9.926;2024-01-25T03:34:38;7.30;99.90
17954;DHT22;9102;53.548;9.926;2024-01-25T03:37:05;7.30;99.90
17954;DHT22;9102;53.548;9.926;2024-01-25T03:39:31;7.40;99.90
17954;DHT22;9102;53.548;9.926;2024-01-25T03:41:58;7.30;99.90
17954;DHT22;9102;53.548;9.926;2024-01-25T03:44:25;7.30;99.90
17954;DHT22;9102;53.548;9.926;2024-01-25T03:46:52;7.30;99.90
17954;DHT22;9102;53.548;9.926;2024-01-25T03:49:20;7.30;99.90
17954;DHT22;9102;53.548;9.926;2024-01-25T03:51:48;7.30;99.90
17954;DHT22;9102;53.548;9.926;2024-01-25T03:54:15;7.30;99.90
17954;DHT22;9102;53.548;9.926;2024-01-25T03:56:42;7.30;99.90
17954;DHT22;9102;53.548;9.926;2024-01-25T03:59:09;7.30;99.90
17954;DHT22;9102;53.548;9.926;2024-01-25T04:01:43;7.30;99.90
17954;DHT22;9102;53.548;9.926;2024-01-25T04:04:10;7.40;99.90
17954;DHT22;9102;53.548;9.926;2024-01-25T04:06:41;7.30;99.90
17954;DHT22;9102;53.548;9.926;2024-01-25T04:09:08;7.30;99.90
17954;DHT22;9102;53.548;9.926;2024-01-25T04:11:36;7.40;99.90
17954;DHT22;9102;53.548;9.926;2024-01-25T04:14:03;7.40;99.90
17954;DHT22;9102;53.548;9.926;2024-01-25T04:16:31;7.40;99.90
17954;DHT22;9102;53.548;9.926;2024-01-25T04:18:58;7.40;99.90
17954;DHT22;9102;53.548;9.926;2024-01-25T04:21:26;7.40;99.90
17954;DHT22;9102;53.548;9.926;2024-01-25T04:23:54;7.40;99.90
17954;DHT22;9102;53.548;9.926;2024-01-25T04:26:22;7.50;99.90
17954;DHT22;9102;53.548;9.926;2024-01-25T04:28:49;7.40;99.90
17954;DHT22;9102;53.548;9.926;2024-01-25T04:31:15;7.40;99.90
17954;DHT22;9102;53.548;9.926;2024-01-25T04:33:42;7.40;99.90
17954;DHT22;9102;53.548;9.926;2024-01-25T04:36:09;7.40;99.90
17954;DHT22;9102;53.548;9.926;2024-01-25T04:38:36;7.40;99.90
17954;DHT22;9102;53.548;9.926;2024-01-25T04:41:04;7.40;99.90
17954;DHT22;9102;53.548;9.926;2024-01-25T04:43:34;7.40;99.90
17954;DHT22;9102;53.548;9.926;2024-01-25T04:46:01;7.40;99.90
17954;DHT22;9102;53.548;9.926;2024-01-25T04:48:28;7.30;99.90
17954;DHT22;9102;53.548;9.926;2024-01-25T04:50:56;7.30;99.90
17954;DHT22;9102;53.548;9.926;2024-01-25T04:53:23;7.40;99.90
17954;DHT22;9102;53.548;9.926;2024-01-25T04:55:49;7.50;99.90
17954;DHT22;9102;53.548;9.926;2024-01-25T04:58:18;7.40;99.90
17954;DHT22;9102;53.548;9.926;2024-01-25T05:00:44;7.40;99.90
17954;DHT22;9102;53.548;9.926;2024-01-25T05:03:11;7.40;99.90
17954;DHT22;9102;53.548;9.926;2024-01-25T05:05:38;7.30;99.90
17954;DHT22;9102;53.548;9.926;2024-01-25T05:08:06;7.40;99.90
17954;DHT22;9102;53.548;9.926;2024-01-25T05:10:33;7.40;99.90
17954;DHT22;9102;53.548;9.926;2024-01-25T05:13:00;7.30;99.90
17954;DHT22;9102;53.548;9.926;2024-01-25T05:15:28;7.30;99.90
17954;DHT22;9102;53.548;9.926;2024-01-25T05:17:55;7.20;99.90
17954;DHT22;9102;53.548;9.926;2024-01-25T05:20:21;7.20;99.90
17954;DHT22;9102;53.548;9.926;2024-01-25T05:22:48;7.30;99.90
17954;DHT22;9102;53.548;9.926;2024-01-25T05:25:15;7.20;99.90
17954;DHT22;9102;53.548;9.926;2024-01-25T05:27:42;7.30;99.90
17954;DHT22;9102;53.548;9.926;2024-01-25T05:30:09;7.20;99.90
17954;DHT22;9102;53.548;9.926;2024-01-25T05:32:37;7.20;99.90
17954;DHT22;9102;53.548;9.926;2024-01-25T05:35:07;7.20;99.90
17954;DHT22;9102;53.548;9.926;2024-01-25T05:37:34;7.20;99.90
17954;DHT22;9102;53.548;9.926;2024-01-25T05:40:01;7.20;99.90
17954;DHT22;9102;53.548;9.926;2024-01-25T05:42:27;7.20;99.90
17954;DHT22;9102;53.548;9.926;2024-01-25T05:44:54;7.30;99.90
17954;DHT22;9102;53.548;9.926;2024-01-25T05:47:21;7.30;99.90
17954;DHT22;9102;53.548;9.926;2024-01-25T05:49:49;7.40;99.90
17954;DHT22;9102;53.548;9.926;2024-01-25T05:52:16;7.30;99.90
17954;DHT22;9102;53.548;9.926;2024-01-25T05:54:43;7.30;99.90
17954;DHT22;9102;53.548;9.926;2024-01-25T05:57:10;7.30;99.90
17954;DHT22;9102;53.548;9.926;2024-01-25T05:59:37;7.20;99.90
17954;DHT22;9102;53.548;9.926;2024-01-25T06:02:03;7.30;99.90
17954;DHT22;9102;53.548;9.926;2024-01-25T06:04:29;7.10;99.90
17954;DHT22;9102;53.548;9.926;2024-01-25T06:06:58;7.10;99.90
17954;DHT22;9102;53.548;9.926;2024-01-25T06:09:25;7.10;99.90
17954;DHT22;9102;53.548;9.926;2024-01-25T06:11:51;7.10;99.90
17954;DHT22;9102;53.548;9.926;2024-01-25T06:14:19;7.10;99.90
17954;DHT22;9102;53.548;9.926;2024-01-25T06:16:45;7.10;99.90
17954;DHT22;9102;53.548;9.926;2024-01-25T06:19:12;7.20;99.90
17954;DHT22;9102;53.548;9.926;2024-01-25T06:21:39;7.10;99.90
17954;DHT22;9102;53.548;9.926;2024-01-25T06:24:07;7.20;99.90
17954;DHT22;9102;53.548;9.926;2024-01-25T06:26:34;7.20;99.90
17954;DHT22;9102;53.548;9.926;2024-01-25T06:29:01;7.20;99.90
17954;DHT22;9102;53.548;9.926;2024-01-25T06:31:28;7.10;99.90
17954;DHT22;9102;53.548;9.926;2024-01-25T06:33:55;7.20;99.90
17954;DHT22;9102;53.548;9.926;2024-01-25T06:36:22;7.20;99.90
17954;DHT22;9102;53.548;9.926;2024-01-25T06:38:49;7.20;99.90
17954;DHT22;9102;53.548;9.926;2024-01-25T06:41:17;7.00;99.90
17954;DHT22;9102;53.548;9.926;2024-01-25T06:43:43;7.10;99.90
17954;DHT22;9102;53.548;9.926;2024-01-25T06:46:13;7.10;99.90
17954;DHT22;9102;53.548;9.926;2024-01-25T06:48:40;7.00;99.90
17954;DHT22;9102;53.548;9.926;2024-01-25T06:51:07;7.00;99.90
17954;DHT22;9102;53.548;9.926;2024-01-25T06:53:34;6.90;99.90
17954;DHT22;9102;53.548;9.926;2024-01-25T06:56:01;6.90;99.90
17954;DHT22;9102;53.548;9.926;2024-01-25T06:58:29;6.90;99.90
17954;DHT22;9102;53.548;9.926;2024-01-25T07:00:56;6.90;99.90
17954;DHT22;9102;53.548;9.926;2024-01-25T07:03:22;7.00;99.90
17954;DHT22;9102;53.548;9.926;2024-01-25T07:05:49;7.00;99.90
17954;DHT22;9102;53.548;9.926;2024-01-25T07:08:16;7.10;99.90
17954;DHT22;9102;53.548;9.926;2024-01-25T07:10:44;7.00;99.90
17954;DHT22;9102;53.548;9.926;2024-01-25T07:13:11;7.10;99.90
17954;DHT22;9102;53.548;9.926;2024-01-25T07:15:39;7.00;99.90
17954;DHT22;9102;53.548;9.926;2024-01-25T07:18:06;7.00;99.90
17954;DHT22;9102;53.548;9.926;2024-01-25T07:20:33;7.00;99.90
17954;DHT22;9102;53.548;9.926;2024-01-25T07:23:01;7.00;99.90
17954;DHT22;9102;53.548;9.926;2024-01-25T07:25:27;7.00;99.90
17954;DHT22;9102;53.548;9.926;2024-01-25T07:27:54;6.90;99.90
17954;DHT22;9102;53.548;9.926;2024-01-25T07:30:21;6.90;99.90
17954;DHT22;9102;53.548;9.926;2024-01-25T07:32:49;7.00;99.90
17954;DHT22;9102;53.548;9.926;2024-01-25T07:35:17;7.00;99.90
17954;DHT22;9102;53.548;9.926;2024-01-25T07:37:44;6.80;99.90
17954;DHT22;9102;53.548;9.926;2024-01-25T07:40:12;7.00;99.90
17954;DHT22;9102;53.548;9.926;2024-01-25T07:42:38;6.80;99.90
17954;DHT22;9102;53.548;9.926;2024-01-25T07:45:06;6.80;99.90
17954;DHT22;9102;53.548;9.926;2024-01-25T07:47:33;6.80;99.90
17954;DHT22;9102;53.548;9.926;2024-01-25T07:50:01;6.90;99.90
17954;DHT22;9102;53.548;9.926;2024-01-25T07:52:28;6.90;99.90
17954;DHT22;9102;53.548;9.926;2024-01-25T07:54:55;6.90;99.90
17954;DHT22;9102;53.548;9.926;2024-01-25T07:57:22;7.00;99.90
17954;DHT22;9102;53.548;9.926;2024-01-25T07:59:49;7.00;99.90
17954;DHT22;9102;53.548;9.926;2024-01-25T08:02:16;7.10;99.90
17954;DHT22;9102;53.548;9.926;2024-01-25T08:04:43;7.10;99.90
17954;DHT22;9102;53.548;9.926;2024-01-25T08:07:11;7.10;99.90
17954;DHT22;9102;53.548;9.926;2024-01-25T08:09:38;7.10;99.90
17954;DHT22;9102;53.548;9.926;2024-01-25T08:12:05;7.20;99.90
17954;DHT22;9102;53.548;9.926;2024-01-25T08:14:32;7.20;99.90
17954;DHT22;9102;53.548;9.926;2024-01-25T08:16:58;7.20;99.90
17954;DHT22;9102;53.548;9.926;2024-01-25T08:19:25;7.20;99.90
17954;DHT22;9102;53.548;9.926;2024-01-25T08:21:52;7.20;99.90
17954;DHT22;9102;53.548;9.926;2024-01-25T08:24:21;7.20;99.90
17954;DHT22;9102;53.548;9.926;2024-01-25T08:26:47;7.30;99.90
17954;DHT22;9102;53.548;9.926;2024-01-25T08:29:14;7.20;99.90
17954;DHT22;9102;53.548;9.926;2024-01-25T08:31:41;7.30;99.90
17954;DHT22;9102;53.548;9.926;2024-01-25T08:34:08;7.30;99.90
17954;DHT22;9102;53.548;9.926;2024-01-25T08:36:35;7.30;99.90
17954;DHT22;9102;53.548;9.926;2024-01-25T08:39:02;7.30;99.90
17954;DHT22;9102;53.548;9.926;2024-01-25T08:41:31;7.30;99.90
17954;DHT22;9102;53.548;9.926;2024-01-25T08:43:57;7.30;99.90
17954;DHT22;9102;53.548;9.926;2024-01-25T08:46:24;7.30;99.90
17954;DHT22;9102;53.548;9.926;2024-01-25T08:48:51;7.40;99.90
17954;DHT22;9102;53.548;9.926;2024-01-25T08:51:18;7.40;99.90
17954;DHT22;9102;53.548;9.926;2024-01-25T08:53:45;7.50;99.90
17954;DHT22;9102;53.548;9.926;2024-01-25T08:56:12;7.50;99.90
17954;DHT22;9102;53.548;9.926;2024-01-25T08:58:40;7.40;99.90
17954;DHT22;9102;53.548;9.926;2024-01-25T09:01:06;7.40;99.90
17954;DHT22;9102;53.548;9.926;2024-01-25T09:03:33;7.40;99.90
17954;DHT22;9102;53.548;9.926;2024-01-25T09:06:00;7.40;99.90
17954;DHT22;9102;53.548;9.926;2024-01-25T09:08:30;7.40;99.90
17954;DHT22;9102;53.548;9.926;2024-01-25T09:10:57;7.40;99.90
17954;DHT22;9102;53.548;9.926;2024-01-25T09:13:25;7.40;99.90
17954;DHT22;9102;53.548;9.926;2024-01-25T09:15:53;7.40;99.90
17954;DHT22;9102;53.548;9.926;2024-01-25T09:18:20;7.40;99.90
17954;DHT22;9102;53.548;9.926;2024-01-25T09:20:46;7.40;99.90
17954;DHT22;9102;53.548;9.926;2024-01-25T09:23:14;7.50;99.90
17954;DHT22;9102;53.548;9.926;2024-01-25T09:25:42;7.40;99.90
17954;DHT22;9102;53.548;9.926;2024-01-25T09:28:08;7.50;99.90
17954;DHT22;9102;53.548;9.926;2024-01-25T09:30:37;7.50;99.90
17954;DHT22;9102;53.548;9.926;2024-01-25T09:33:06;7.50;99.90
17954;DHT22;9102;53.548;9.926;2024-01-25T09:35:33;7.50;99.90
17954;DHT22;9102;53.548;9.926;2024-01-25T09:38:00;7.60;99.90
17954;DHT22;9102;53.548;9.926;2024-01-25T09:40:27;7.60;99.90
17954;DHT22;9102;53.548;9.926;2024-01-25T09:42:54;7.60;99.90
17954;DHT22;9102;53.548;9.926;2024-01-25T09:45:22;7.60;99.90
17954;DHT22;9102;53.548;9.926;2024-01-25T09:47:50;7.60;99.90
17954;DHT22;9102;53.548;9.926;2024-01-25T09:50:19;7.60;99.90
17954;DHT22;9102;53.548;9.926;2024-01-25T09:52:53;7.60;99.90
17954;DHT22;9102;53.548;9.926;2024-01-25T09:55:23;7.50;99.90
17954;DHT22;9102;53.548;9.926;2024-01-25T09:57:53;7.60;99.90
17954;DHT22;9102;53.548;9.926;2024-01-25T10:00:21;7.60;99.90
17954;DHT22;9102;53.548;9.926;2024-01-25T10:02:48;7.70;99.90
17954;DHT22;9102;53.548;9.926;2024-01-25T10:05:15;7.60;99.90
17954;DHT22;9102;53.548;9.926;2024-01-25T10:07:44;7.70;99.90
17954;DHT22;9102;53.548;9.926;2024-01-25T10:10:12;7.60;99.90
17954;DHT22;9102;53.548;9.926;2024-01-25T10:12:40;7.60;99.90
17954;DHT22;9102;53.548;9.926;2024-01-25T10:15:08;7.60;99.90
17954;DHT22;9102;53.548;9.926;2024-01-25T10:17:35;7.60;99.90
17954;DHT22;9102;53.548;9.926;2024-01-25T10:20:04;7.60;99.90
17954;DHT22;9102;53.548;9.926;2024-01-25T10:22:33;7.60;99.90
17954;DHT22;9102;53.548;9.926;2024-01-25T10:25:01;7.60;99.90
17954;DHT22;9102;53.548;9.926;2024-01-25T10:27:28;7.70;99.90
17954;DHT22;9102;53.548;9.926;2024-01-25T10:29:56;7.70;99.90
17954;DHT22;9102;53.548;9.926;2024-01-25T10:32:22;7.70;99.90
17954;DHT22;9102;53.548;9.926;2024-01-25T10:34:50;7.70;99.90
17954;DHT22;9102;53.548;9.926;2024-01-25T10:37:18;7.70;99.90
17954;DHT22;9102;53.548;9.926;2024-01-25T10:39:47;7.70;99.90
17954;DHT22;9102;53.548;9.926;2024-01-25T10:42:16;7.70;99.90
17954;DHT22;9102;53.548;9.926;2024-01-25T10:44:43;7.80;99.90
17954;DHT22;9102;53.548;9.926;2024-01-25T10:47:11;7.80;99.90
17954;DHT22;9102;53.548;9.926;2024-01-25T10:49:41;7.80;99.90
17954;DHT22;9102;53.548;9.926;2024-01-25T10:52:09;7.80;99.90
17954;DHT22;9102;53.548;9.926;2024-01-25T10:54:36;7.80;99.90
17954;DHT22;9102;53.548;9.926;2024-01-25T10:57:05;7.80;99.90
17954;DHT22;9102;53.548;9.926;2024-01-25T10:59:34;7.80;99.90
17954;DHT22;9102;53.548;9.926;2024-01-25T11:02:01;7.90;99.90
17954;DHT22;9102;53.548;9.926;2024-01-25T11:04:29;7.90;99.90
17954;DHT22;9102;53.548;9.926;2024-01-25T11:07:04;7.80;99.90
17954;DHT22;9102;53.548;9.926;2024-01-25T11:09:33;7.90;99.90
17954;DHT22;9102;53.548;9.926;2024-01-25T11:12:01;7.90;99.90
17954;DHT22;9102;53.548;9.926;2024-01-25T11:14:28;7.90;99.90
17954;DHT22;9102;53.548;9.926;2024-01-25T11:16:58;7.90;99.90
17954;DHT22;9102;53.548;9.926;2024-01-25T11:19:27;8.00;99.90
17954;DHT22;9102;53.548;9.926;2024-01-25T11:21:54;7.90;99.90
17954;DHT22;9102;53.548;9.926;2024-01-25T11:24:22;8.00;99.90
17954;DHT22;9102;53.548;9.926;2024-01-25T11:26:49;8.00;99.90
17954;DHT22;9102;53.548;9.926;2024-01-25T11:29:17;8.00;99.90
17954;DHT22;9102;53.548;9.926;2024-01-25T11:31:44;8.00;99.90
17954;DHT22;9102;53.548;9.926;2024-01-25T11:34:12;8.10;99.90
17954;DHT22;9102;53.548;9.926;2024-01-25T11:36:40;8.10;99.90
17954;DHT22;9102;53.548;9.926;2024-01-25T11:39:08;8.10;99.90
17954;DHT22;9102;53.548;9.926;2024-01-25T11:41:36;8.20;99.90
17954;DHT22;9102;53.548;9.926;2024-01-25T11:44:03;8.20;99.90
17954;DHT22;9102;53.548;9.926;2024-01-25T11:46:31;8.20;99.90
17954;DHT22;9102;53.548;9.926;2024-01-25T11:48:58;8.10;99.90
17954;DHT22;9102;53.548;9.926;2024-01-25T11:51:26;8.00;99.90
17954;DHT22;9102;53.548;9.926;2024-01-25T11:53:56;7.90;99.90
17954;DHT22;9102;53.548;9.926;2024-01-25T11:56:25;7.90;99.90
17954;DHT22;9102;53.548;9.926;2024-01-25T11:58:53;7.90;99.90
17954;DHT22;9102;53.548;9.926;2024-01-25T12:01:22;8.00;99.90
17954;DHT22;9102;53.548;9.926;2024-01-25T12:03:49;8.00;99.90
17954;DHT22;9102;53.548;9.926;2024-01-25T12:06:17;8.10;99.90
17954;DHT22;9102;53.548;9.926;2024-01-25T12:08:46;8.20;99.90
17954;DHT22;9102;53.548;9.926;2024-01-25T12:11:14;8.30;99.90
17954;DHT22;9102;53.548;9.926;2024-01-25T12:13:41;8.30;99.90
17954;DHT22;9102;53.548;9.926;2024-01-25T12:16:09;8.30;99.90
17954;DHT22;9102;53.548;9.926;2024-01-25T12:18:37;8.20;99.90
17954;DHT22;9102;53.548;9.926;2024-01-25T12:21:05;8.10;99.90
17954;DHT22;9102;53.548;9.926;2024-01-25T12:23:32;8.00;99.90
17954;DHT22;9102;53.548;9.926;2024-01-25T12:26:02;8.00;99.90
17954;DHT22;9102;53.548;9.926;2024-01-25T12:28:31;8.00;99.90
17954;DHT22;9102;53.548;9.926;2024-01-25T12:30:58;8.00;99.90
17954;DHT22;9102;53.548;9.926;2024-01-25T12:33:26;8.00;99.90
17954;DHT22;9102;53.548;9.926;2024-01-25T12:35:53;7.90;99.90
17954;DHT22;9102;53.548;9.926;2024-01-25T12:38:20;7.90;99.90
17954;DHT22;9102;53.548;9.926;2024-01-25T12:40:47;7.90;99.90
17954;DHT22;9102;53.548;9.926;2024-01-25T12:43:16;7.90;99.90
17954;DHT22;9102;53.548;9.926;2024-01-25T12:45:43;7.90;99.90
17954;DHT22;9102;53.548;9.926;2024-01-25T12:48:10;7.90;99.90
17954;DHT22;9102;53.548;9.926;2024-01-25T12:50:37;8.00;99.90
17954;DHT22;9102;53.548;9.926;2024-01-25T12:53:05;8.00;99.90
17954;DHT22;9102;53.548;9.926;2024-01-25T12:55:33;8.00;99.90
17954;DHT22;9102;53.548;9.926;2024-01-25T12:58:00;8.00;99.90
17954;DHT22;9102;53.548;9.926;2024-01-25T13:00:28;8.00;99.90
17954;DHT22;9102;53.548;9.926;2024-01-25T13:02:55;8.10;99.90
17954;DHT22;9102;53.548;9.926;2024-01-25T13:05:23;8.00;99.90
17954;DHT22;9102;53.548;9.926;2024-01-25T13:07:50;8.00;99.90
17954;DHT22;9102;53.548;9.926;2024-01-25T13:10:17;8.10;99.90
17954;DHT22;9102;53.548;9.926;2024-01-25T13:12:44;8.20;99.90
17954;DHT22;9102;53.548;9.926;2024-01-25T13:15:11;8.10;99.90
17954;DHT22;9102;53.548;9.926;2024-01-25T13:17:39;8.20;99.90
17954;DHT22;9102;53.548;9.926;2024-01-25T13:20:07;8.20;99.90
17954;DHT22;9102;53.548;9.926;2024-01-25T13:22:34;8.10;99.90
17954;DHT22;9102;53.548;9.926;2024-01-25T13:25:02;8.20;99.90
17954;DHT22;9102;53.548;9.926;2024-01-25T13:27:29;8.20;99.90
17954;DHT22;9102;53.548;9.926;2024-01-25T13:29:56;8.20;99.90
17954;DHT22;9102;53.548;9.926;2024-01-25T13:32:23;8.20;99.90
17954;DHT22;9102;53.548;9.926;2024-01-25T13:34:51;8.20;99.90
17954;DHT22;9102;53.548;9.926;2024-01-25T13:37:18;8.20;99.90
17954;DHT22;9102;53.548;9.926;2024-01-25T13:39:45;8.50;99.90
17954;DHT22;9102;53.548;9.926;2024-01-25T13:42:12;8.40;99.90
17954;DHT22;9102;53.548;9.926;2024-01-25T13:44:39;8.50;99.90
17954;DHT22;9102;53.548;9.926;2024-01-25T13:47:06;8.60;99.90
17954;DHT22;9102;53.548;9.926;2024-01-25T13:49:33;8.70;99.90
17954;DHT22;9102;53.548;9.926;2024-01-25T13:52:02;8.70;99.90
17954;DHT22;9102;53.548;9.926;2024-01-25T13:54:29;8.80;99.90
17954;DHT22;9102;53.548;9.926;2024-01-25T13:56:56;8.90;99.90
17954;DHT22;9102;53.548;9.926;2024-01-25T13:59:23;8.80;99.90
17954;DHT22;9102;53.548;9.926;2024-01-25T14:01:53;9.00;99.90
17954;DHT22;9102;53.548;9.926;2024-01-25T14:04:20;9.10;99.90
17954;DHT22;9102;53.548;9.926;2024-01-25T14:06:47;9.20;99.90
17954;DHT22;9102;53.548;9.926;2024-01-25T14:09:15;9.20;99.90
17954;DHT22;9102;53.548;9.926;2024-01-25T14:11:42;9.20;99.90
17954;DHT22;9102;53.548;9.926;2024-01-25T14:14:09;9.30;99.90
17954;DHT22;9102;53.548;9.926;2024-01-25T14:16:36;9.40;99.90
17954;DHT22;9102;53.548;9.926;2024-01-25T14:19:03;9.50;99.90
17954;DHT22;9102;53.548;9.926;2024-01-25T14:21:29;9.50;99.90
17954;DHT22;9102;53.548;9.926;2024-01-25T14:23:56;9.30;99.90
17954;DHT22;9102;53.548;9.926;2024-01-25T14:26:24;9.10;99.90
17954;DHT22;9102;53.548;9.926;2024-01-25T14:28:51;9.00;99.90
17954;DHT22;9102;53.548;9.926;2024-01-25T14:31:18;9.00;99.90
17954;DHT22;9102;53.548;9.926;2024-01-25T14:33:45;8.90;99.90
17954;DHT22;9102;53.548;9.926;2024-01-25T14:36:12;8.80;99.90
17954;DHT22;9102;53.548;9.926;2024-01-25T14:38:39;8.80;99.90
17954;DHT22;9102;53.548;9.926;2024-01-25T14:41:08;8.80;99.90
17954;DHT22;9102;53.548;9.926;2024-01-25T14:43:37;8.80;99.90
17954;DHT22;9102;53.548;9.926;2024-01-25T14:46:05;8.80;99.90
17954;DHT22;9102;53.548;9.926;2024-01-25T14:48:32;8.80;99.90
17954;DHT22;9102;53.548;9.926;2024-01-25T14:50:59;8.70;99.90
17954;DHT22;9102;53.548;9.926;2024-01-25T14:53:26;8.70;99.90
17954;DHT22;9102;53.548;9.926;2024-01-25T14:55:52;8.60;99.90
17954;DHT22;9102;53.548;9.926;2024-01-25T14:58:19;8.60;99.90
17954;DHT22;9102;53.548;9.926;2024-01-25T15:00:50;8.50;99.90
17954;DHT22;9102;53.548;9.926;2024-01-25T15:03:17;8.40;99.90
17954;DHT22;9102;53.548;9.926;2024-01-25T15:05:44;8.50;99.90
17954;DHT22;9102;53.548;9.926;2024-01-25T15:08:11;8.30;99.90
17954;DHT22;9102;53.548;9.926;2024-01-25T15:10:38;8.30;99.90
17954;DHT22;9102;53.548;9.926;2024-01-25T15:13:05;8.20;99.90
17954;DHT22;9102;53.548;9.926;2024-01-25T15:15:32;8.20;99.90
17954;DHT22;9102;53.548;9.926;2024-01-25T15:18:00;8.20;99.90
17954;DHT22;9102;53.548;9.926;2024-01-25T15:20:27;8.10;99.90
17954;DHT22;9102;53.548;9.926;2024-01-25T15:22:54;8.10;99.90
17954;DHT22;9102;53.548;9.926;2024-01-25T15:25:22;8.00;99.90
17954;DHT22;9102;53.548;9.926;2024-01-25T15:27:52;7.90;99.90
17954;DHT22;9102;53.548;9.926;2024-01-25T15:30:19;7.90;99.90
17954;DHT22;9102;53.548;9.926;2024-01-25T15:32:45;7.80;99.90
17954;DHT22;9102;53.548;9.926;2024-01-25T15:35:14;7.80;99.90
17954;DHT22;9102;53.548;9.926;2024-01-25T15:37:41;7.80;99.90
17954;DHT22;9102;53.548;9.926;2024-01-25T15:40:08;7.70;99.90
17954;DHT22;9102;53.548;9.926;2024-01-25T15:42:37;7.60;99.90
17954;DHT22;9102;53.548;9.926;2024-01-25T15:45:05;7.60;99.90
17954;DHT22;9102;53.548;9.926;2024-01-25T15:47:32;7.60;99.90
17954;DHT22;9102;53.548;9.926;2024-01-25T15:49:59;7.50;99.90
17954;DHT22;9102;53.548;9.926;2024-01-25T15:52:27;7.50;99.90
17954;DHT22;9102;53.548;9.926;2024-01-25T15:54:54;7.40;99.90
17954;DHT22;9102;53.548;9.926;2024-01-25T15:57:21;7.50;99.90
17954;DHT22;9102;53.548;9.926;2024-01-25T15:59:47;7.40;99.90
17954;DHT22;9102;53.548;9.926;2024-01-25T16:02:15;7.40;99.90